KAUW/AUW METAR and TAF weather

Enter ICAO airport designator
Station Type Date Time Source
KAUW METAR 2019/06/16 12:54 UTC NOAA

KAUW 161254Z AUTO 08008KT 10SM OVC080 10/05 A2992 RMK AO2 SLP136 T01000050


Station Type Date Time Source
KAUW Decoded METAR 2019/06/16 12:54 UTC NOAA

WAUSAU DOWNTOWN AIRPORT, WI, United States (KAUW) 44-56N 089-37W 362M
Jun 16, 2019 - 08:54 AM EDT / 2019.06.16 1254 UTC
Wind: from the E (080 degrees) at 9 MPH (8 KT):0
Visibility: 10 mile(s):0
Sky conditions: overcast
Temperature: 50.0 F (10.0 C)
Dew Point: 41.0 F (5.0 C)
Relative Humidity: 71%
Pressure (altimeter): 29.92 in. Hg (1013 hPa)
ob: KAUW 161254Z AUTO 08008KT 10SM OVC080 10/05 A2992 RMK AO2 SLP136 T01000050
cycle: 13

Station Type Date Time Source
KAUW TAF 2019/06/16 12:36 UTC NOAA

TAF KAUW 161133Z 1612/1712 07007KT 6SM BR VCSH SCT025 OVC035
FM161500 08008KT P6SM VCSH SCT025 OVC035
FM161700 09006KT P6SM OVC040
FM170200 12002KT P6SM SCT120
FM170600 VRB03KT P6SM SCT150

Example: see airport list